createdAt,value
2018-01-14T00:00:23.408Z,76.5
2018-01-14T00:01:23.622Z,76.52
2018-01-14T00:02:23.441Z,76.36
2018-01-14T00:03:23.405Z,76.15
2018-01-14T00:04:23.705Z,76.08
2018-01-14T00:05:23.482Z,76.14
2018-01-14T00:06:23.427Z,76.1
2018-01-14T00:07:23.542Z,76.4
2018-01-14T00:08:23.616Z,75.93
2018-01-14T00:09:23.605Z,76
2018-01-14T00:10:23.455Z,76.09
2018-01-14T00:11:23.475Z,76.25
2018-01-14T00:12:23.439Z,76.33
2018-01-14T00:13:23.315Z,76.18
2018-01-14T00:14:23.546Z,76.25
2018-01-14T00:15:23.630Z,76.1
2018-01-14T00:16:23.639Z,76.25
2018-01-14T00:17:23.750Z,76.13
2018-01-14T00:18:23.757Z,76.13
2018-01-14T00:19:23.763Z,76.25
2018-01-14T00:20:23.570Z,76.04
2018-01-14T00:21:23.692Z,76.01
2018-01-14T00:22:23.704Z,76.26
2018-01-14T00:23:23.685Z,76.5
2018-01-14T00:24:23.521Z,76.29
2018-01-14T00:25:24.519Z,76.39
2018-01-14T00:26:24.045Z,76.53
2018-01-14T00:27:23.990Z,76.6
2018-01-14T00:28:23.324Z,76.87
2018-01-14T00:29:23.608Z,76.83
2018-01-14T00:30:23.590Z,76.89
2018-01-14T00:31:23.701Z,76.74
2018-01-14T00:32:23.658Z,76.82
2018-01-14T00:33:23.691Z,76.71
2018-01-14T00:34:23.557Z,77
2018-01-14T00:35:24.032Z,77.16
2018-01-14T00:36:23.597Z,77.13
2018-01-14T00:37:24.074Z,77.06
2018-01-14T00:38:23.714Z,77.17
2018-01-14T00:39:23.838Z,77.39
2018-01-14T00:40:23.559Z,77.45
2018-01-14T00:41:23.707Z,77.53
2018-01-14T00:42:23.658Z,77.84
2018-01-14T00:43:23.794Z,77.37
2018-01-14T00:44:23.549Z,77.51
2018-01-14T00:45:23.709Z,77.35
2018-01-14T00:46:23.907Z,77.45
2018-01-14T00:47:23.868Z,77.26
2018-01-14T00:48:24.057Z,77.36
2018-01-14T00:49:24.133Z,77.28
2018-01-14T00:50:23.746Z,77.54
2018-01-14T00:51:23.806Z,77.54
2018-01-14T00:52:24.287Z,77.66
2018-01-14T00:53:23.875Z,77.63
2018-01-14T00:54:23.705Z,77.81
2018-01-14T00:55:23.606Z,77.72
2018-01-14T00:56:24.040Z,77.54
2018-01-14T00:57:23.628Z,77.46
2018-01-14T00:58:23.762Z,77.81
2018-01-14T00:59:23.848Z,77.64
2018-01-14T01:00:23.904Z,77.64
2018-01-14T01:01:23.837Z,77.77
2018-01-14T01:02:23.839Z,77.8
2018-01-14T01:03:23.556Z,77.89
2018-01-14T01:04:23.571Z,77.97
2018-01-14T01:05:23.552Z,77.9
2018-01-14T01:06:23.939Z,78.02
2018-01-14T01:07:23.790Z,78.12
2018-01-14T01:08:23.812Z,78.13
2018-01-14T01:09:23.681Z,78.3
2018-01-14T01:10:23.791Z,78.2
2018-01-14T01:11:23.737Z,78.29
2018-01-14T01:12:23.750Z,78.28
2018-01-14T01:13:23.853Z,78.4
2018-01-14T01:14:23.821Z,78.4
2018-01-14T01:15:23.943Z,78.64
2018-01-14T01:16:23.584Z,78.54
2018-01-14T01:17:23.712Z,78.37
2018-01-14T01:18:23.250Z,78.66
2018-01-14T01:19:23.840Z,78.69
2018-01-14T01:20:23.682Z,78.6
2018-01-14T01:21:24.426Z,78.43
2018-01-14T01:22:23.288Z,78.69
2018-01-14T01:23:23.768Z,78.85
2018-01-14T01:24:24.182Z,78.76
2018-01-14T01:25:23.784Z,78.83
2018-01-14T01:26:23.802Z,78.71
2018-01-14T01:27:24.043Z,78.84
2018-01-14T01:28:23.419Z,78.92
2018-01-14T01:29:23.667Z,78.94
2018-01-14T01:30:23.739Z,79.03
2018-01-14T01:31:23.747Z,78.98
2018-01-14T01:32:23.582Z,79.08
2018-01-14T01:33:23.935Z,79.08
2018-01-14T01:34:24.262Z,79.18
2018-01-14T01:35:23.659Z,79.12
2018-01-14T01:36:24.146Z,79.08
2018-01-14T01:37:23.736Z,79.45
2018-01-14T01:38:23.858Z,79.16
2018-01-14T01:39:23.631Z,79.11
2018-01-14T01:40:23.754Z,79.22
2018-01-14T01:41:23.759Z,79.37
2018-01-14T01:42:23.662Z,79.35
2018-01-14T01:43:23.696Z,79.35
2018-01-14T01:44:23.879Z,79.43
2018-01-14T01:45:23.844Z,79.57
2018-01-14T01:46:24.104Z,79.56
2018-01-14T01:47:23.694Z,79.5
2018-01-14T01:48:24.118Z,79.49
2018-01-14T01:49:23.425Z,79.52
2018-01-14T01:50:23.339Z,79.75
2018-01-14T01:51:24.057Z,79.83
2018-01-14T01:52:23.863Z,79.72
2018-01-14T01:53:23.342Z,79.62
2018-01-14T01:54:24.188Z,79.54
2018-01-14T01:55:23.368Z,79.62
2018-01-14T01:56:24.095Z,79.78
2018-01-14T01:57:23.936Z,79.56
2018-01-14T01:58:23.935Z,79.54
2018-01-14T01:59:24.021Z,79.71
2018-01-14T02:00:23.743Z,79.65
2018-01-14T02:01:23.895Z,79.61
2018-01-14T02:02:23.456Z,79.55
2018-01-14T02:03:24.320Z,79.66
2018-01-14T02:04:23.962Z,79.75
2018-01-14T02:05:23.855Z,79.87
2018-01-14T02:06:23.413Z,79.7
2018-01-14T02:07:23.324Z,79.61
2018-01-14T02:08:24.094Z,79.66
2018-01-14T02:09:24.082Z,79.75
2018-01-14T02:10:23.481Z,79.51
2018-01-14T02:11:24.001Z,79.62
2018-01-14T02:12:23.402Z,79.69
2018-01-14T02:13:23.511Z,79.82
2018-01-14T02:14:24.804Z,79.74
2018-01-14T02:15:23.591Z,79.69
2018-01-14T02:16:23.404Z,79.83
2018-01-14T02:17:23.952Z,79.77
2018-01-14T02:18:24.086Z,79.91
2018-01-14T02:19:24.211Z,79.92
2018-01-14T02:20:24.004Z,79.9
2018-01-14T02:21:24.065Z,79.9
2018-01-14T02:22:23.766Z,80
2018-01-14T02:23:24.376Z,79.96
2018-01-14T02:24:24.055Z,80.24
2018-01-14T02:25:23.520Z,80.2
2018-01-14T02:26:24.086Z,80.18
2018-01-14T02:27:24.379Z,80.01
2018-01-14T02:28:23.819Z,79.98
2018-01-14T02:29:23.446Z,80.03
2018-01-14T02:30:24.217Z,80.12
2018-01-14T02:31:23.699Z,80.24
2018-01-14T02:32:23.557Z,80.2
2018-01-14T02:35:23.376Z,80.17
2018-01-14T02:36:23.978Z,80.1
2018-01-14T02:37:23.909Z,80.3
2018-01-14T02:38:22.760Z,80.54
2018-01-14T02:39:22.763Z,80.33
2018-01-14T02:40:22.860Z,80.32
2018-01-14T02:41:22.848Z,80.25
2018-01-14T02:42:22.805Z,80.36
2018-01-14T02:43:22.720Z,80.49
2018-01-14T02:44:22.817Z,80.32
2018-01-14T02:45:22.855Z,80.4
2018-01-14T02:46:22.814Z,80.46
2018-01-14T02:47:23.513Z,80.63
2018-01-14T02:48:23.036Z,80.61
2018-01-14T02:49:22.811Z,80.75
2018-01-14T02:50:22.771Z,80.74
2018-01-14T02:51:22.864Z,80.77
2018-01-14T02:52:22.874Z,80.84
2018-01-14T02:53:22.906Z,80.78
2018-01-14T02:54:22.942Z,80.86
2018-01-14T02:55:23.056Z,80.98
2018-01-14T02:56:22.875Z,80.92
2018-01-14T02:57:23.012Z,80.88
2018-01-14T02:58:22.998Z,80.97
2018-01-14T02:59:22.932Z,80.81
2018-01-14T03:00:22.951Z,80.83
2018-01-14T03:01:22.891Z,80.84
2018-01-14T03:02:23.017Z,80.77
2018-01-14T03:03:22.785Z,81.02
2018-01-14T03:04:22.881Z,81.01
2018-01-14T03:05:22.939Z,81.07
2018-01-14T03:06:23.496Z,81
2018-01-14T03:07:22.885Z,81.13
2018-01-14T03:08:22.753Z,81.18
2018-01-14T03:09:22.785Z,81
2018-01-14T03:10:22.895Z,81.11
2018-01-14T03:11:22.859Z,81.23
2018-01-14T03:12:22.921Z,81.31
2018-01-14T03:13:22.843Z,81.15
2018-01-14T03:14:22.978Z,81.18
2018-01-14T03:15:23.024Z,81.19
2018-01-14T03:16:22.936Z,81.21
2018-01-14T03:17:23.159Z,81.31
2018-01-14T03:18:23.473Z,81.33
2018-01-14T03:19:22.901Z,81.35
2018-01-14T03:20:23.455Z,81.37
2018-01-14T03:21:23.088Z,81.1
2018-01-14T03:22:22.991Z,81.23
2018-01-14T03:23:22.903Z,81.3
2018-01-14T03:24:22.895Z,81.23
2018-01-14T03:25:23.205Z,81.27
2018-01-14T03:26:23.488Z,81.29
2018-01-14T03:27:23.013Z,81.25
2018-01-14T03:28:23.132Z,81.19
2018-01-14T03:29:22.995Z,81.28
2018-01-14T03:30:22.968Z,81.44
2018-01-14T03:31:22.959Z,81.48
2018-01-14T03:32:22.988Z,81.45
2018-01-14T03:33:22.873Z,81.35
2018-01-14T03:34:22.901Z,81.25
2018-01-14T03:35:23.013Z,81.44
2018-01-14T03:36:23.107Z,81.52
2018-01-14T03:37:23.109Z,81.63
2018-01-14T03:38:22.942Z,81.77
2018-01-14T03:39:22.946Z,81.63
2018-01-14T03:40:23.091Z,81.73
2018-01-14T03:41:23.043Z,81.67
2018-01-14T03:42:23.029Z,81.74
2018-01-14T03:43:23.162Z,81.67
2018-01-14T03:44:23.136Z,81.51
2018-01-14T03:45:23.308Z,81.48
2018-01-14T03:46:23.113Z,81.59
2018-01-14T03:47:24.135Z,81.75
2018-01-14T03:48:23.834Z,81.68
2018-01-14T03:49:23.019Z,81.76
2018-01-14T03:50:23.170Z,81.91
2018-01-14T03:51:22.991Z,81.82
2018-01-14T03:52:22.913Z,81.57
2018-01-14T03:53:23.001Z,81.88
2018-01-14T03:54:23.747Z,81.85
2018-01-14T03:55:22.844Z,81.85
2018-01-14T03:56:23.247Z,81.86
2018-01-14T03:57:23.208Z,81.92
2018-01-14T03:58:23.039Z,81.9
2018-01-14T03:59:23.178Z,82.02
2018-01-14T04:00:22.900Z,81.89
2018-01-14T04:01:23.079Z,81.94
2018-01-14T04:02:23.131Z,81.81
2018-01-14T04:03:23.059Z,82.05
2018-01-14T04:04:22.940Z,81.85
2018-01-14T04:05:22.990Z,81.75
2018-01-14T04:06:22.956Z,81.95
2018-01-14T04:07:23.121Z,81.86
2018-01-14T04:08:22.913Z,81.73
2018-01-14T04:09:23.027Z,81.73
2018-01-14T04:10:23.057Z,82.04
2018-01-14T04:11:22.916Z,81.66
2018-01-14T04:12:22.973Z,81.65
2018-01-14T04:13:22.992Z,81.75
2018-01-14T04:14:22.971Z,81.65
2018-01-14T04:15:23.163Z,81.58
2018-01-14T04:16:23.006Z,81.53
2018-01-14T04:17:22.979Z,81.87
2018-01-14T04:18:22.984Z,81.87
2018-01-14T04:19:22.952Z,81.56
2018-01-14T04:20:22.951Z,81.61
2018-01-14T04:21:23.024Z,81.61
2018-01-14T04:22:23.014Z,81.65
2018-01-14T04:23:23.011Z,81.6
2018-01-14T04:24:22.996Z,81.76
2018-01-14T04:25:22.982Z,81.46
2018-01-14T04:26:22.969Z,81.62
2018-01-14T04:27:23.021Z,81.67
2018-01-14T04:28:23.053Z,81.75
2018-01-14T04:29:23.038Z,81.7
2018-01-14T04:30:22.953Z,81.5
2018-01-14T04:31:22.959Z,81.63
2018-01-14T04:32:22.965Z,81.65
2018-01-14T04:33:23.057Z,81.67
2018-01-14T04:34:23.068Z,81.65
2018-01-14T04:35:23.020Z,81.7
2018-01-14T04:36:23.044Z,81.63
2018-01-14T04:37:23.113Z,81.54
2018-01-14T04:38:23.008Z,81.53
2018-01-14T04:39:22.977Z,81.56
2018-01-14T04:40:23.029Z,81.62
2018-01-14T04:41:23.058Z,81.59
2018-01-14T04:42:22.975Z,81.4
2018-01-14T04:43:23.092Z,81.44
2018-01-14T04:44:23.038Z,81.4
2018-01-14T04:45:23.052Z,81.4
2018-01-14T04:46:23.069Z,81.38
2018-01-14T04:47:23.019Z,81.41
2018-01-14T04:48:23.067Z,81.31
2018-01-14T04:49:23.074Z,81.57
2018-01-14T04:50:23.030Z,81.43
2018-01-14T04:51:23.041Z,81.45
2018-01-14T04:52:23.069Z,81.53
2018-01-14T04:53:23.019Z,81.46
2018-01-14T04:54:22.984Z,81.27
2018-01-14T04:55:23.060Z,81.36
2018-01-14T04:56:23.017Z,81.39
2018-01-14T04:57:23.043Z,81.46
2018-01-14T04:58:23.044Z,81.36
2018-01-14T04:59:23.035Z,81.47
2018-01-14T05:00:23.042Z,81.57
2018-01-14T05:01:23.066Z,81.47
2018-01-14T05:02:23.072Z,81.61
2018-01-14T05:03:23.026Z,81.59
2018-01-14T05:04:23.027Z,81.64
2018-01-14T05:05:23.103Z,81.63
2018-01-14T05:06:23.064Z,81.6
2018-01-14T05:07:23.002Z,81.33
2018-01-14T05:08:22.983Z,81.71
2018-01-14T05:09:23.048Z,81.66
2018-01-14T05:10:23.022Z,81.59
2018-01-14T05:11:23.031Z,81.52
2018-01-14T05:12:23.069Z,81.57
2018-01-14T05:13:23.007Z,81.69
2018-01-14T05:14:23.015Z,81.59
2018-01-14T05:15:23.187Z,81.57
2018-01-14T05:16:23.094Z,81.65
2018-01-14T05:17:23.184Z,81.77
2018-01-14T05:18:23.094Z,81.46
2018-01-14T05:19:23.051Z,81.74
2018-01-14T05:20:23.051Z,81.65
2018-01-14T05:21:23.107Z,81.57
2018-01-14T05:22:23.147Z,81.63
2018-01-14T05:23:23.184Z,81.43
2018-01-14T05:24:23.167Z,81.38
2018-01-14T05:25:23.091Z,81.49
2018-01-14T05:26:23.063Z,81.69
2018-01-14T05:27:23.090Z,81.61
2018-01-14T05:28:23.160Z,81.56
2018-01-14T05:29:23.119Z,81.7
2018-01-14T05:30:23.090Z,81.72
2018-01-14T05:31:23.096Z,81.63
2018-01-14T05:32:23.084Z,81.67
2018-01-14T05:33:23.118Z,81.85
2018-01-14T05:34:23.172Z,81.88
2018-01-14T05:35:23.061Z,82
2018-01-14T05:36:23.062Z,81.96
2018-01-14T05:37:23.104Z,82.09
2018-01-14T05:38:23.121Z,82.12
2018-01-14T05:39:23.242Z,81.88
2018-01-14T05:40:23.130Z,82.08
2018-01-14T05:41:23.127Z,82
2018-01-14T05:42:23.156Z,81.97
2018-01-14T05:43:23.101Z,82.24
2018-01-14T05:44:23.087Z,82.1
2018-01-14T05:45:23.218Z,82.05
2018-01-14T05:46:23.166Z,82.15
2018-01-14T05:47:23.162Z,81.94
2018-01-14T05:48:23.192Z,82.18
2018-01-14T05:49:23.181Z,82.27
2018-01-14T05:50:23.202Z,82.31
2018-01-14T05:51:23.143Z,82.34
2018-01-14T05:52:23.207Z,82.12
2018-01-14T05:53:23.181Z,82.17
2018-01-14T05:54:23.158Z,82.16
2018-01-14T05:55:23.147Z,82.29
2018-01-14T05:56:23.188Z,82.05
2018-01-14T05:57:23.133Z,82.03
2018-01-14T05:58:23.176Z,82.08
2018-01-14T05:59:23.271Z,81.99
2018-01-14T06:00:23.194Z,82.19
2018-01-14T06:01:23.151Z,82.07
2018-01-14T06:02:23.150Z,82.07
2018-01-14T06:03:23.114Z,81.99
2018-01-14T06:04:23.160Z,81.93
2018-01-14T06:05:23.416Z,81.97
2018-01-14T06:06:23.164Z,81.68
2018-01-14T06:07:23.136Z,81.63
2018-01-14T06:08:23.248Z,81.5
2018-01-14T06:09:23.134Z,81.57
2018-01-14T06:10:23.182Z,81.75
2018-01-14T06:11:23.206Z,81.69
2018-01-14T06:12:23.154Z,81.75
2018-01-14T06:13:23.193Z,81.69
2018-01-14T06:14:23.156Z,81.68
2018-01-14T06:15:23.228Z,81.61
2018-01-14T06:16:23.209Z,81.62
2018-01-14T06:17:23.188Z,81.38
2018-01-14T06:18:23.237Z,81.4
2018-01-14T06:19:23.203Z,81.4
2018-01-14T06:20:23.171Z,81.72
2018-01-14T06:21:23.198Z,81.48
2018-01-14T06:22:23.378Z,81.15
2018-01-14T06:23:23.229Z,81.2
2018-01-14T06:24:23.189Z,81.41
2018-01-14T06:25:23.218Z,81.37
2018-01-14T06:26:23.190Z,81.28
2018-01-14T06:27:23.239Z,81.23
2018-01-14T06:28:23.243Z,81.3
2018-01-14T06:29:23.253Z,81.18
2018-01-14T06:30:23.171Z,81.25
2018-01-14T06:31:23.213Z,81.43
2018-01-14T06:32:23.273Z,81.11
2018-01-14T06:33:23.145Z,81.32
2018-01-14T06:34:23.160Z,81.43
2018-01-14T06:35:23.225Z,81.09
2018-01-14T06:36:23.169Z,81.15
2018-01-14T06:37:23.340Z,80.99
2018-01-14T06:38:23.216Z,81.11
2018-01-14T06:39:23.220Z,81.19
2018-01-14T06:40:23.192Z,81.12
2018-01-14T06:41:23.187Z,81.4
2018-01-14T06:42:23.255Z,80.86
2018-01-14T06:43:23.220Z,80.89
2018-01-14T06:44:23.247Z,80.93
2018-01-14T06:45:23.275Z,81.08
2018-01-14T06:46:23.259Z,80.91
2018-01-14T06:47:23.293Z,81.1
2018-01-14T06:48:23.257Z,80.83
2018-01-14T06:49:23.261Z,80.85
2018-01-14T06:50:23.257Z,80.94
2018-01-14T06:51:23.325Z,80.96
2018-01-14T06:52:23.294Z,80.87
2018-01-14T06:53:23.279Z,80.81
2018-01-14T06:54:23.292Z,80.78
2018-01-14T06:55:23.204Z,80.51
2018-01-14T06:56:23.307Z,80.76
2018-01-14T06:57:23.213Z,80.83
2018-01-14T06:58:23.254Z,80.8
2018-01-14T06:59:23.294Z,80.86
2018-01-14T07:00:23.419Z,80.81
2018-01-14T07:01:23.310Z,80.81
2018-01-14T07:02:23.256Z,80.88
2018-01-14T07:03:23.312Z,80.8
2018-01-14T07:04:23.244Z,80.75
2018-01-14T07:05:23.317Z,80.83
2018-01-14T07:06:23.348Z,80.69
2018-01-14T07:07:23.306Z,80.5
2018-01-14T07:08:23.278Z,80.5
2018-01-14T07:09:23.307Z,80.54
2018-01-14T07:10:23.328Z,80.83
2018-01-14T07:11:23.308Z,80.6
2018-01-14T07:12:23.314Z,80.55
2018-01-14T07:13:23.298Z,80.57
2018-01-14T07:14:23.237Z,80.82
2018-01-14T07:15:23.412Z,80.53
2018-01-14T07:16:23.378Z,80.55
2018-01-14T07:17:23.411Z,80.5
2018-01-14T07:18:23.367Z,80.3
2018-01-14T07:19:23.419Z,80.36
2018-01-14T07:20:23.380Z,80.25
2018-01-14T07:21:23.360Z,80.29
2018-01-14T07:22:23.392Z,80.39
2018-01-14T07:23:23.334Z,80.31
2018-01-14T07:24:23.397Z,80.36
2018-01-14T07:25:23.910Z,80.47
2018-01-14T07:26:23.347Z,80.44
2018-01-14T07:27:23.428Z,80.53
2018-01-14T07:28:23.371Z,80.21
2018-01-14T07:29:23.390Z,80.55
2018-01-14T07:30:23.347Z,80.67
2018-01-14T07:31:23.507Z,80.52
2018-01-14T07:32:23.321Z,80.4
2018-01-14T07:33:23.380Z,80.44
2018-01-14T07:34:23.424Z,80.42
2018-01-14T07:35:23.357Z,80.36
2018-01-14T07:36:23.370Z,80.41
2018-01-14T07:37:23.364Z,80.3
2018-01-14T07:38:23.375Z,80.26
2018-01-14T07:39:23.380Z,80.34
2018-01-14T07:40:23.328Z,80.33
2018-01-14T07:41:23.318Z,80.32
2018-01-14T07:42:23.445Z,80.71
2018-01-14T07:43:23.476Z,80.3
2018-01-14T07:44:23.310Z,80.17
2018-01-14T07:45:23.567Z,80.19
2018-01-14T07:46:23.518Z,80.33
2018-01-14T07:47:23.479Z,80.11
2018-01-14T07:48:23.543Z,80.03
2018-01-14T07:49:23.452Z,80.16
2018-01-14T07:50:23.418Z,80.15
2018-01-14T07:51:23.416Z,80.17
2018-01-14T07:52:23.578Z,80.02
2018-01-14T07:53:23.499Z,79.67
2018-01-14T07:54:23.511Z,79.78
2018-01-14T07:55:23.462Z,79.86
2018-01-14T07:56:23.473Z,80.07
2018-01-14T07:57:23.438Z,79.87
2018-01-14T07:58:23.663Z,79.62
2018-01-14T07:59:23.540Z,79.66
2018-01-14T08:00:23.500Z,79.75
2018-01-14T08:01:23.460Z,79.92
2018-01-14T08:02:23.474Z,79.94
2018-01-14T08:03:23.477Z,79.86
2018-01-14T08:04:23.447Z,79.85
2018-01-14T08:05:23.478Z,79.73
2018-01-14T08:06:23.482Z,79.83
2018-01-14T08:07:23.429Z,79.95
2018-01-14T08:08:23.569Z,79.39
2018-01-14T08:09:23.455Z,79.44
2018-01-14T08:10:23.520Z,79.46
2018-01-14T08:11:23.626Z,79.5
2018-01-14T08:12:23.477Z,79.39
2018-01-14T08:13:23.443Z,79.42
2018-01-14T08:14:23.524Z,79.08
2018-01-14T08:15:23.576Z,78.62
2018-01-14T08:16:22.571Z,78.93
2018-01-14T08:17:22.574Z,78.6
2018-01-14T08:18:22.569Z,78.83
2018-01-14T08:19:22.622Z,78.92
2018-01-14T08:20:22.847Z,78.52
2018-01-14T08:21:22.667Z,78.6
2018-01-14T08:22:22.574Z,78.54
2018-01-14T08:23:22.612Z,78.58
2018-01-14T08:24:22.566Z,78.56
2018-01-14T08:25:22.605Z,78.4
2018-01-14T08:26:22.506Z,78.61
2018-01-14T08:27:22.585Z,78.56
2018-01-14T08:28:22.544Z,78.41
2018-01-14T08:29:22.599Z,78.51
2018-01-14T08:30:22.522Z,78.39
2018-01-14T08:31:22.538Z,78.35
2018-01-14T08:32:22.546Z,78.73
2018-01-14T08:33:22.566Z,78.3
2018-01-14T08:34:22.514Z,78.16
2018-01-14T08:35:22.818Z,78.14
2018-01-14T08:36:22.553Z,78.28
2018-01-14T08:37:22.544Z,78.02
2018-01-14T08:38:22.528Z,78
2018-01-14T08:39:22.560Z,78.01
2018-01-14T08:40:22.543Z,77.87
2018-01-14T08:41:22.615Z,77.4
2018-01-14T08:42:22.544Z,77.53
2018-01-14T08:43:22.551Z,77.59
2018-01-14T08:44:22.519Z,77.58
2018-01-14T08:45:22.638Z,77.54
2018-01-14T08:46:22.602Z,77.82
2018-01-14T08:47:22.602Z,77.14
2018-01-14T08:48:22.596Z,77.59
2018-01-14T08:49:22.575Z,77.56
2018-01-14T08:50:22.698Z,77.41
2018-01-14T08:51:22.538Z,77.24
2018-01-14T08:52:22.653Z,77.5
2018-01-14T08:53:22.645Z,77.02
2018-01-14T08:54:22.669Z,77.21
2018-01-14T08:55:22.587Z,76.99
2018-01-14T08:56:22.577Z,76.93
2018-01-14T08:57:22.582Z,77.29
2018-01-14T08:58:22.562Z,77.01
2018-01-14T08:59:22.632Z,77.24
2018-01-14T09:00:22.577Z,77.35
2018-01-14T09:01:22.632Z,77.27
2018-01-14T09:02:22.616Z,76.94
2018-01-14T09:03:22.541Z,77.07
2018-01-14T09:04:22.565Z,76.95
2018-01-14T09:05:22.584Z,76.91
2018-01-14T09:06:22.575Z,76.33
2018-01-14T09:07:22.647Z,76.5
2018-01-14T09:08:22.582Z,76.61
2018-01-14T09:09:22.630Z,76.39
2018-01-14T09:10:22.604Z,76.29
2018-01-14T09:11:22.691Z,76.04
2018-01-14T09:12:22.642Z,76.24
2018-01-14T09:13:22.610Z,76.09
2018-01-14T09:14:22.597Z,76.29
2018-01-14T09:15:22.768Z,76
2018-01-14T09:16:22.657Z,75.97
2018-01-14T09:17:22.728Z,75.92
2018-01-14T09:18:22.655Z,76.09
2018-01-14T09:19:22.617Z,76.11
2018-01-14T09:20:22.687Z,76.01
2018-01-14T09:21:22.604Z,76.28
2018-01-14T09:22:22.635Z,75.9
2018-01-14T09:23:22.647Z,76.07
2018-01-14T09:24:22.674Z,75.95
2018-01-14T09:25:22.656Z,75.81
2018-01-14T09:26:22.698Z,75.91
2018-01-14T09:27:22.795Z,75.71
2018-01-14T09:28:22.665Z,75.53
2018-01-14T09:29:22.697Z,75.69
2018-01-14T09:30:22.688Z,75.69
2018-01-14T09:31:22.609Z,75.5
2018-01-14T09:32:22.730Z,75.47
2018-01-14T09:33:22.646Z,75.41
2018-01-14T09:34:22.658Z,74.99
2018-01-14T09:35:22.606Z,75.03
2018-01-14T09:36:22.702Z,75.08
2018-01-14T09:37:22.682Z,75.26
2018-01-14T09:38:23.064Z,75.39
2018-01-14T09:39:22.591Z,75.38
2018-01-14T09:40:22.725Z,75.13
2018-01-14T09:41:22.701Z,74.5
2018-01-14T09:42:22.718Z,74.67
2018-01-14T09:43:22.801Z,74.83
2018-01-14T09:44:22.684Z,74.38
2018-01-14T09:45:22.689Z,74.5
2018-01-14T09:46:22.736Z,74.65
2018-01-14T09:47:22.727Z,74.6
2018-01-14T09:48:22.763Z,74.92
2018-01-14T09:49:22.760Z,74.82
2018-01-14T09:50:22.700Z,74.23
2018-01-14T09:51:22.752Z,74.48
2018-01-14T09:52:22.737Z,74.77
2018-01-14T09:53:22.710Z,74.64
2018-01-14T09:54:22.809Z,74.56
2018-01-14T09:55:22.755Z,74.24
2018-01-14T09:56:22.790Z,74.09
2018-01-14T09:57:22.844Z,74.08
2018-01-14T09:58:22.726Z,74.63
2018-01-14T09:59:22.805Z,74.4
2018-01-14T10:00:22.841Z,74.44
2018-01-14T10:01:22.808Z,73.76
2018-01-14T10:02:22.702Z,73.57
2018-01-14T10:03:22.767Z,73.55
2018-01-14T10:04:22.815Z,73.39
2018-01-14T10:05:22.869Z,73.96
2018-01-14T10:06:22.719Z,74.35
2018-01-14T10:07:22.843Z,74.03
2018-01-14T10:08:22.771Z,74.07
2018-01-14T10:09:23.060Z,74.1
2018-01-14T10:10:22.809Z,73.92
2018-01-14T10:11:22.830Z,73.92
2018-01-14T10:12:22.913Z,73.89
2018-01-14T10:13:22.779Z,73.59
2018-01-14T10:14:22.809Z,73.05
2018-01-14T10:15:22.789Z,73.2
2018-01-14T10:16:22.837Z,73.28
2018-01-14T10:17:22.773Z,73.45
2018-01-14T10:18:22.698Z,73.43
2018-01-14T10:19:22.702Z,73.36
2018-01-14T10:20:22.841Z,73.21
2018-01-14T10:21:22.784Z,73.07
2018-01-14T10:22:22.697Z,72.83
2018-01-14T10:23:22.731Z,73.24
2018-01-14T10:24:22.740Z,73.17
2018-01-14T10:25:23.064Z,73.49
2018-01-14T10:26:23.470Z,73.1
2018-01-14T10:27:22.802Z,72.69
2018-01-14T10:28:22.766Z,72.87
2018-01-14T10:29:22.774Z,73.21
2018-01-14T10:30:22.713Z,73.51
2018-01-14T10:31:22.716Z,72.95
2018-01-14T10:32:22.756Z,72.54
2018-01-14T10:33:22.810Z,72.35
2018-01-14T10:34:22.766Z,72.4
2018-01-14T10:35:22.781Z,73.07
2018-01-14T10:36:22.756Z,73.21
2018-01-14T10:37:22.812Z,72.34
2018-01-14T10:38:22.936Z,72.4
2018-01-14T10:39:22.751Z,72
2018-01-14T10:40:23.036Z,72.47
2018-01-14T10:41:22.768Z,72.44
2018-01-14T10:42:26.405Z,72.32
2018-01-14T10:43:22.865Z,72.58
2018-01-14T10:44:22.796Z,72.39
2018-01-14T10:45:24.739Z,72.26
2018-01-14T10:46:23.467Z,72.33
2018-01-14T10:47:22.855Z,71.81
2018-01-14T10:48:22.827Z,72.03
2018-01-14T10:49:22.942Z,71.64
2018-01-14T10:50:23.384Z,71.67
2018-01-14T10:51:22.892Z,72.11
2018-01-14T10:52:22.854Z,71.98
2018-01-14T10:53:22.810Z,72.42
2018-01-14T10:54:22.843Z,71.65
2018-01-14T10:55:22.791Z,71.87
2018-01-14T10:56:22.843Z,71.64
2018-01-14T10:57:22.849Z,71.75
2018-01-14T10:58:22.797Z,72
2018-01-14T10:59:26.665Z,71.7
2018-01-14T11:00:22.840Z,71.7
2018-01-14T11:01:22.879Z,71.5
2018-01-14T11:02:22.933Z,71.3
2018-01-14T11:03:22.840Z,71.74
2018-01-14T11:04:22.808Z,71.74
2018-01-14T11:05:25.399Z,71.41
2018-01-14T11:06:24.330Z,71.06
2018-01-14T11:07:12.305Z,71.64
2018-01-14T11:08:12.328Z,71.17
2018-01-14T11:09:14.053Z,70.62
2018-01-14T11:10:12.141Z,70.51
2018-01-14T11:11:12.140Z,71.02
2018-01-14T11:12:13.375Z,71.21
2018-01-14T11:13:12.370Z,70.75
2018-01-14T11:14:12.159Z,70.92
2018-01-14T11:15:12.093Z,71.06
2018-01-14T11:16:12.146Z,70.42
2018-01-14T11:17:12.130Z,71.1
2018-01-14T11:18:12.310Z,69.96
2018-01-14T11:19:12.124Z,70.43
2018-01-14T11:20:12.214Z,69.87
2018-01-14T11:21:12.167Z,70.34
2018-01-14T11:22:12.147Z,70.4
2018-01-14T11:23:12.195Z,69.95
2018-01-14T11:24:12.351Z,70.13
2018-01-14T11:25:12.254Z,70.25
2018-01-14T11:26:12.191Z,70.44
2018-01-14T11:27:12.227Z,70.69
2018-01-14T11:28:12.197Z,69.7
2018-01-14T11:29:12.298Z,69.87
2018-01-14T11:30:12.163Z,70.32
2018-01-14T11:31:12.182Z,70.12
2018-01-14T11:32:12.188Z,69.83
2018-01-14T11:33:12.175Z,69.93
2018-01-14T11:34:12.193Z,70.1
2018-01-14T11:35:12.209Z,69.87
2018-01-14T11:36:12.160Z,69.69
2018-01-14T11:37:12.270Z,69.85
2018-01-14T11:38:12.191Z,69.61
2018-01-14T11:39:12.198Z,69.81
2018-01-14T11:40:12.263Z,69.95
2018-01-14T11:41:12.228Z,70.04
2018-01-14T11:42:12.231Z,69.71
2018-01-14T11:43:12.346Z,69.4
2018-01-14T11:44:12.355Z,69.64
2018-01-14T11:45:12.290Z,69.75
2018-01-14T11:46:12.160Z,69.7
2018-01-14T11:47:12.178Z,69.77
2018-01-14T11:48:12.227Z,69.36
2018-01-14T11:49:12.202Z,69.15
2018-01-14T11:50:12.278Z,69.05
2018-01-14T11:51:12.331Z,69.01
2018-01-14T11:52:12.241Z,68.94
2018-01-14T11:53:12.242Z,69
2018-01-14T11:54:12.255Z,69.44
2018-01-14T11:55:12.247Z,69.49
2018-01-14T11:56:12.366Z,69.79
2018-01-14T11:57:12.222Z,69.56
2018-01-14T11:58:12.226Z,69.55
2018-01-14T11:59:12.249Z,69.72
2018-01-14T12:00:12.256Z,69.17
2018-01-14T12:01:12.264Z,69.3
2018-01-14T12:02:12.256Z,69.43
2018-01-14T12:03:12.160Z,69.46
2018-01-14T12:04:12.178Z,69.54
2018-01-14T12:05:12.229Z,69.34
2018-01-14T12:06:12.225Z,69.56
2018-01-14T12:07:12.298Z,69.34
2018-01-14T12:08:12.236Z,69.11
2018-01-14T12:09:12.238Z,69.03
2018-01-14T12:10:12.264Z,68.99
2018-01-14T12:11:12.439Z,68.66
2018-01-14T12:12:12.241Z,69
2018-01-14T12:13:12.284Z,68.81
2018-01-14T12:14:03.966Z,69.15
2018-01-14T12:15:03.909Z,69.14
2018-01-14T12:16:03.925Z,68.99
2018-01-14T12:17:03.909Z,69.65
2018-01-14T12:18:03.880Z,68.75
2018-01-14T12:19:03.858Z,69.21
2018-01-14T12:20:03.917Z,69.13
2018-01-14T12:21:03.863Z,69.48
2018-01-14T12:22:03.895Z,68.83
2018-01-14T12:23:03.926Z,68.98
2018-01-14T12:24:03.910Z,68.71
2018-01-14T12:25:03.842Z,68.95
2018-01-14T12:26:03.839Z,69.27
2018-01-14T12:27:03.927Z,69.19
2018-01-14T12:28:03.934Z,68.71
2018-01-14T12:29:03.912Z,69.09
2018-01-14T12:30:03.875Z,68.84
2018-01-14T12:31:03.878Z,69
2018-01-14T12:32:04.034Z,69.11
2018-01-14T12:33:03.940Z,69.04
2018-01-14T12:34:03.952Z,68.78
2018-01-14T12:35:03.887Z,69.08
2018-01-14T12:36:03.873Z,69.12
2018-01-14T12:37:04.013Z,68.92
2018-01-14T12:38:03.919Z,68.82
2018-01-14T12:39:03.883Z,68.98
2018-01-14T12:40:03.898Z,69.32
2018-01-14T12:41:03.891Z,69.17
2018-01-14T12:42:03.958Z,68.94
2018-01-14T12:43:03.967Z,69.19
2018-01-14T12:44:03.934Z,68.7
2018-01-14T12:45:03.921Z,68.67
2018-01-14T12:46:03.939Z,69
2018-01-14T12:47:03.936Z,69.22
2018-01-14T12:48:04.110Z,68.22
2018-01-14T12:49:03.959Z,68.56
2018-01-14T12:50:03.913Z,68.79
2018-01-14T12:51:03.976Z,68.89
2018-01-14T12:52:03.945Z,68.52
2018-01-14T12:53:04.009Z,68.9
2018-01-14T12:54:03.942Z,68.58
2018-01-14T12:55:03.970Z,68.28
2018-01-14T12:56:03.939Z,68.19
2018-01-14T12:57:03.950Z,68.53
2018-01-14T12:58:04.028Z,68.53